Time;durP1;ratioP1;P1;durP2;ratioP2;P2;SDS_P1;SDS_P2;PMS_P1;PMS_P2;Temp;Humidity;BMP_temperature;BMP_pressure;BME280_temperature;BME280_humidity;BME280_pressure;Samples;Min_cycle;Max_cycle;Signal;HPM_P1;HPM_P2
2021/08/26 00:00:50;;;;;;;7.93;6.50;;;14.20;99.90;;;;;;5096122;28;20595;-67
2021/08/26 00:06:04;;;;;;;8.03;7.13;;;14.10;99.90;;;;;;5114407;28;20608;-67
2021/08/26 00:08:32;;;;;;;6.47;5.87;;;14.10;99.90;;;;;;5114359;28;20592;-66
2021/08/26 00:10:59;;;;;;;6.60;5.90;;;14.20;99.90;;;;;;5113593;28;20620;-66
2021/08/26 00:13:25;;;;;;;7.47;6.57;;;14.20;99.90;;;;;;5114362;28;21195;-66
2021/08/26 00:15:53;;;;;;;7.30;5.33;;;14.20;99.90;;;;;;5095775;28;21049;-67
2021/08/26 00:18:23;;;;;;;7.20;6.50;;;14.20;99.90;;;;;;5099614;28;20567;-66
2021/08/26 00:20:53;;;;;;;10.60;6.67;;;14.10;99.90;;;;;;5119003;28;20627;-67
2021/08/26 00:23:23;;;;;;;8.27;5.97;;;14.10;99.90;;;;;;5118057;28;20626;-66
2021/08/26 00:25:50;;;;;;;7.87;5.77;;;14.00;99.90;;;;;;5118750;28;20701;-67
2021/08/26 00:28:17;;;;;;;7.07;6.47;;;14.10;99.90;;;;;;5099494;28;20624;-67
2021/08/26 00:30:44;;;;;;;8.00;5.63;;;14.10;99.90;;;;;;5118535;28;20620;-66
2021/08/26 00:33:10;;;;;;;6.90;5.90;;;14.20;99.90;;;;;;5099810;28;20660;-66
2021/08/26 00:35:36;;;;;;;7.00;6.30;;;14.20;99.90;;;;;;5118650;28;20619;-66
2021/08/26 00:38:03;;;;;;;7.00;5.77;;;14.20;99.90;;;;;;5117521;28;20619;-68
2021/08/26 00:40:29;;;;;;;8.33;6.17;;;14.20;99.90;;;;;;5118164;28;20941;-67
2021/08/26 00:42:58;;;;;;;9.00;6.20;;;14.30;99.90;;;;;;5118550;28;21079;-67
2021/08/26 00:45:25;;;;;;;8.93;5.63;;;14.20;99.90;;;;;;5118027;28;20963;-67
2021/08/26 00:47:52;;;;;;;7.97;7.17;;;14.20;99.90;;;;;;5117451;28;20655;-67
2021/08/26 00:50:18;;;;;;;12.87;6.03;;;14.10;99.90;;;;;;5118017;28;20604;-67
2021/08/26 00:52:46;;;;;;;7.93;6.93;;;13.90;99.90;;;;;;5117400;28;20656;-66
2021/08/26 00:55:13;;;;;;;8.10;6.60;;;13.80;99.90;;;;;;5117537;28;20592;-67
2021/08/26 00:57:40;;;;;;;8.33;6.90;;;13.80;99.90;;;;;;5117182;28;21002;-66
2021/08/26 01:00:09;;;;;;;6.90;6.20;;;13.80;99.90;;;;;;5117948;28;20619;-66
2021/08/26 01:02:56;;;;;;;10.10;6.37;;;13.80;99.90;;;;;;5117855;28;20626;-67
2021/08/26 01:05:37;;;;;;;6.70;6.00;;;13.80;99.90;;;;;;5117718;28;20567;-65
2021/08/26 01:08:11;;;;;;;6.97;6.37;;;13.80;99.90;;;;;;5117466;28;20556;-67
2021/08/26 01:10:40;;;;;;;6.60;6.00;;;13.70;99.90;;;;;;5117419;28;20602;-66
2021/08/26 01:13:09;;;;;;;9.03;6.97;;;13.70;99.90;;;;;;5117481;28;21208;-66
2021/08/26 01:15:35;;;;;;;7.20;6.13;;;13.60;99.90;;;;;;5117314;28;20601;-66
2021/08/26 01:18:01;;;;;;;7.73;6.90;;;13.50;99.90;;;;;;5117197;28;20593;-66
2021/08/26 01:20:28;;;;;;;6.97;6.27;;;13.40;99.90;;;;;;5117114;28;20951;-66
2021/08/26 01:22:54;;;;;;;11.43;7.20;;;13.30;99.90;;;;;;5098989;28;20603;-67
2021/08/26 01:25:26;;;;;;;10.37;7.07;;;13.20;99.90;;;;;;5116853;28;20718;-66
2021/08/26 01:28:03;;;;;;;6.47;5.70;;;13.20;99.90;;;;;;5116816;28;20617;-66
2021/08/26 01:30:36;;;;;;;7.13;6.50;;;13.30;99.90;;;;;;5116301;28;20584;-67
2021/08/26 01:33:03;;;;;;;6.40;5.80;;;13.30;99.90;;;;;;5098156;28;20659;-67
2021/08/26 01:35:30;;;;;;;7.00;6.30;;;13.30;99.90;;;;;;5117153;28;20608;-67
2021/08/26 01:37:59;;;;;;;10.03;6.97;;;13.40;99.90;;;;;;5099314;28;20616;-67
2021/08/26 01:40:42;;;;;;;7.43;6.43;;;13.30;99.90;;;;;;5117335;28;21150;-65
2021/08/26 01:43:12;;;;;;;18.73;6.97;;;13.20;99.90;;;;;;5117071;28;20564;-65
2021/08/26 01:45:43;;;;;;;14.03;7.30;;;13.20;99.90;;;;;;5117377;28;20592;-66
2021/08/26 01:48:11;;;;;;;8.30;6.20;;;13.30;99.90;;;;;;5116999;28;21014;-66
2021/08/26 01:50:40;;;;;;;8.87;5.37;;;13.30;99.90;;;;;;5116731;28;20688;-67
2021/08/26 01:53:06;;;;;;;6.70;6.00;;;13.30;99.90;;;;;;5117005;28;20652;-67
2021/08/26 01:55:32;;;;;;;11.33;6.27;;;13.40;99.90;;;;;;5116713;28;20593;-67
2021/08/26 01:57:59;;;;;;;10.00;6.00;;;13.50;99.90;;;;;;5116412;28;20627;-66
2021/08/26 02:00:28;;;;;;;7.10;6.43;;;13.50;99.90;;;;;;5116350;28;20616;-66
2021/08/26 02:02:54;;;;;;;9.23;6.37;;;13.50;99.90;;;;;;5116071;28;20624;-67
2021/08/26 02:05:23;;;;;;;7.03;6.27;;;13.50;99.90;;;;;;5116346;28;20743;-67
2021/08/26 02:07:51;;;;;;;8.70;6.60;;;13.30;99.90;;;;;;5116168;28;20612;-67
2021/08/26 02:10:17;;;;;;;7.10;6.50;;;13.30;99.90;;;;;;5116241;28;20626;-67
2021/08/26 02:12:44;;;;;;;7.40;6.37;;;13.40;99.90;;;;;;5097635;28;20666;-67
2021/08/26 02:15:11;;;;;;;8.00;6.00;;;13.30;99.90;;;;;;5116236;28;20608;-65
2021/08/26 02:17:37;;;;;;;7.63;6.10;;;13.40;99.90;;;;;;5115688;28;20941;-65
2021/08/26 02:20:05;;;;;;;6.63;5.97;;;13.30;99.90;;;;;;5116202;28;20563;-65
2021/08/26 02:22:32;;;;;;;8.10;6.20;;;13.30;99.90;;;;;;5116249;28;20631;-66
2021/08/26 02:24:58;;;;;;;7.57;6.30;;;13.20;99.90;;;;;;5115498;28;21162;-66
2021/08/26 02:27:24;;;;;;;12.50;7.03;;;13.00;99.90;;;;;;5115876;28;20632;-66
2021/08/26 02:29:51;;;;;;;9.10;6.53;;;13.00;99.90;;;;;;5115805;28;20588;-66
2021/08/26 02:32:17;;;;;;;7.93;6.57;;;13.00;99.90;;;;;;5115785;28;20628;-66
2021/08/26 02:34:44;;;;;;;9.93;6.07;;;13.20;99.90;;;;;;5116370;28;20592;-66
2021/08/26 02:37:10;;;;;;;8.30;6.57;;;13.30;99.90;;;;;;5116399;28;21023;-66
2021/08/26 02:39:36;;;;;;;7.33;6.23;;;13.40;99.90;;;;;;5115038;28;20985;-66
2021/08/26 02:42:03;;;;;;;7.00;5.63;;;13.50;99.90;;;;;;5116287;28;20643;-66
2021/08/26 02:44:30;;;;;;;6.60;5.60;;;13.50;99.90;;;;;;5116367;28;20604;-66
2021/08/26 02:46:58;;;;;;;14.00;5.60;;;13.50;99.90;;;;;;5116213;28;20592;-66
2021/08/26 02:49:24;;;;;;;8.53;6.90;;;13.50;99.90;;;;;;5116319;28;20608;-66
2021/08/26 02:51:52;;;;;;;6.43;5.83;;;13.30;99.90;;;;;;5115959;28;20616;-66
2021/08/26 02:54:18;;;;;;;7.10;6.00;;;13.40;99.90;;;;;;5116499;28;20600;-66
2021/08/26 02:56:44;;;;;;;6.10;5.50;;;13.40;99.90;;;;;;5116660;28;20616;-65
2021/08/26 02:59:11;;;;;;;9.80;6.57;;;13.40;99.90;;;;;;5116500;28;21002;-66
2021/08/26 03:01:37;;;;;;;10.20;5.97;;;13.40;99.90;;;;;;5116168;28;21162;-65
2021/08/26 03:04:04;;;;;;;10.00;6.00;;;13.50;99.90;;;;;;5115814;28;20613;-66
2021/08/26 03:06:31;;;;;;;6.07;5.57;;;13.50;99.90;;;;;;5115424;28;20650;-66
2021/08/26 03:08:58;;;;;;;8.03;6.70;;;13.50;99.90;;;;;;5114705;28;20630;-66
2021/08/26 03:11:24;;;;;;;9.63;6.73;;;13.50;99.90;;;;;;5115343;28;20623;-66
2021/08/26 03:13:50;;;;;;;7.13;6.43;;;13.40;99.90;;;;;;5113961;28;20656;-66
2021/08/26 03:16:17;;;;;;;8.50;6.70;;;13.40;99.90;;;;;;5115139;28;20613;-66
2021/08/26 03:18:43;;;;;;;9.23;6.50;;;13.40;99.90;;;;;;5114896;28;20601;-66
2021/08/26 03:21:09;;;;;;;9.07;7.53;;;13.50;99.90;;;;;;5115391;28;20940;-66
2021/08/26 03:23:35;;;;;;;8.03;6.70;;;13.50;99.90;;;;;;5114952;28;20611;-66
2021/08/26 03:26:02;;;;;;;7.73;5.50;;;13.60;99.90;;;;;;5115287;28;20624;-66
2021/08/26 03:28:28;;;;;;;7.80;6.93;;;13.70;99.90;;;;;;5115076;28;20596;-66
2021/08/26 03:30:54;;;;;;;6.07;5.53;;;13.70;99.90;;;;;;5114949;28;20612;-66
2021/08/26 03:33:21;;;;;;;7.03;5.50;;;13.80;99.90;;;;;;5114813;28;21216;-66
2021/08/26 03:35:49;;;;;;;10.17;6.47;;;13.80;99.90;;;;;;5114780;28;20563;-66
2021/08/26 03:38:16;;;;;;;7.00;6.30;;;13.90;99.90;;;;;;5114094;28;20626;-66
2021/08/26 03:40:42;;;;;;;10.83;7.03;;;14.00;99.90;;;;;;5114214;28;20612;-66
2021/08/26 03:43:09;;;;;;;7.90;7.10;;;13.90;99.90;;;;;;5114474;28;20631;-66
2021/08/26 03:45:36;;;;;;;7.23;6.63;;;13.90;99.90;;;;;;5114819;28;20956;-66
2021/08/26 03:48:02;;;;;;;7.57;6.77;;;13.80;99.90;;;;;;5114547;28;20587;-66
2021/08/26 03:50:29;;;;;;;9.17;6.67;;;13.80;99.90;;;;;;5115046;28;20623;-66
2021/08/26 03:52:56;;;;;;;7.37;6.53;;;13.80;99.90;;;;;;5113724;28;20659;-66
2021/08/26 03:55:22;;;;;;;9.20;6.87;;;13.80;99.90;;;;;;5113436;28;20620;-66
2021/08/26 03:57:48;;;;;;;8.20;6.90;;;13.80;99.90;;;;;;5114754;28;21109;-66
2021/08/26 04:00:15;;;;;;;8.37;7.03;;;13.80;99.90;;;;;;5114498;28;20591;-66
2021/08/26 04:02:41;;;;;;;16.10;7.57;;;13.80;99.90;;;;;;5114950;28;20623;-67
2021/08/26 04:05:08;;;;;;;8.93;7.40;;;13.80;99.90;;;;;;5115117;28;20616;-67
2021/08/26 04:07:35;;;;;;;8.47;7.23;;;13.70;99.90;;;;;;5114057;28;21165;-67
2021/08/26 04:10:03;;;;;;;9.40;6.50;;;13.60;99.90;;;;;;5114315;28;20631;-67
2021/08/26 04:12:30;;;;;;;9.10;7.63;;;13.60;99.90;;;;;;5114150;28;20610;-67
2021/08/26 04:14:56;;;;;;;9.20;7.55;;;13.60;99.90;;;;;;5115308;28;20591;-66
2021/08/26 04:17:23;;;;;;;7.50;6.70;;;13.60;99.90;;;;;;5114842;28;20301;-67
2021/08/26 04:19:51;;;;;;;10.67;6.23;;;13.60;99.90;;;;;;5114365;28;20684;-67
2021/08/26 04:22:17;;;;;;;10.00;6.90;;;13.60;99.90;;;;;;5114765;28;20615;-67
2021/08/26 04:24:44;;;;;;;8.10;6.60;;;13.60;99.90;;;;;;5114424;28;20608;-67
2021/08/26 04:27:10;;;;;;;9.97;7.33;;;13.70;99.90;;;;;;5114830;28;20603;-67
2021/08/26 04:29:36;;;;;;;12.37;7.93;;;13.70;99.90;;;;;;5113959;28;20968;-66
2021/08/26 04:32:03;;;;;;;8.70;6.80;;;13.60;99.90;;;;;;5114634;28;20966;-66
2021/08/26 04:34:30;;;;;;;8.73;7.87;;;13.70;99.90;;;;;;5114523;28;20658;-67
2021/08/26 04:36:56;;;;;;;9.67;7.10;;;13.70;99.90;;;;;;5114758;28;20692;-67
2021/08/26 04:39:22;;;;;;;8.27;7.43;;;13.70;99.90;;;;;;5114629;28;21165;-67
2021/08/26 04:41:48;;;;;;;8.77;7.87;;;13.70;99.90;;;;;;5114159;28;20692;-66
2021/08/26 04:44:15;;;;;;;10.20;7.13;;;13.60;99.90;;;;;;5114593;28;20648;-67
2021/08/26 04:46:41;;;;;;;7.13;6.43;;;13.70;99.90;;;;;;5114089;28;20643;-66
2021/08/26 04:49:07;;;;;;;7.63;6.73;;;13.60;99.90;;;;;;5112976;28;20631;-67
2021/08/26 04:51:34;;;;;;;9.67;7.70;;;13.70;99.90;;;;;;5113927;28;20632;-67
2021/08/26 04:54:00;;;;;;;8.65;7.75;;;13.70;99.90;;;;;;5113553;28;20636;-67
2021/08/26 04:56:27;;;;;;;9.73;7.57;;;13.60;99.90;;;;;;5113101;28;20578;-67
2021/08/26 04:58:53;;;;;;;8.13;7.43;;;13.60;99.90;;;;;;5113331;28;20225;-67
2021/08/26 05:01:19;;;;;;;11.40;8.43;;;13.50;99.90;;;;;;5096286;28;20634;-67
2021/08/26 05:03:45;;;;;;;8.70;7.80;;;13.50;99.90;;;;;;5116297;28;20207;-67
2021/08/26 05:06:14;;;;;;;11.40;8.20;;;13.50;99.90;;;;;;5100098;28;20711;-67
2021/08/26 05:08:41;;;;;;;9.23;7.87;;;13.40;99.90;;;;;;5118034;28;20194;-67
2021/08/26 05:11:07;;;;;;;9.73;7.93;;;13.50;99.90;;;;;;5117729;28;20591;-67
2021/08/26 05:13:33;;;;;;;9.07;8.17;;;13.60;99.90;;;;;;5117171;28;20671;-67
2021/08/26 05:16:00;;;;;;;12.07;7.80;;;13.60;99.90;;;;;;5116471;28;20619;-67
2021/08/26 05:18:26;;;;;;;8.27;7.47;;;13.70;99.90;;;;;;5117426;28;20584;-67
2021/08/26 05:20:53;;;;;;;7.77;7.10;;;13.80;99.90;;;;;;5117121;28;20607;-67
2021/08/26 05:23:20;;;;;;;14.70;8.60;;;13.90;99.90;;;;;;5117505;28;21193;-67
2021/08/26 05:25:46;;;;;;;7.60;6.83;;;13.80;99.90;;;;;;5116697;28;20646;-67
2021/08/26 05:28:13;;;;;;;11.13;7.60;;;13.80;99.90;;;;;;5116967;28;20614;-67
2021/08/26 05:30:39;;;;;;;12.80;8.13;;;13.90;99.90;;;;;;5117620;28;20543;-68
2021/08/26 05:33:05;;;;;;;9.20;6.63;;;13.90;99.90;;;;;;5118109;28;20628;-67
2021/08/26 05:35:32;;;;;;;7.53;6.70;;;13.90;99.90;;;;;;5117701;28;21152;-67
2021/08/26 05:37:58;;;;;;;11.20;9.23;;;13.90;99.90;;;;;;5116854;28;20617;-67
2021/08/26 05:40:24;;;;;;;10.87;7.70;;;14.00;99.90;;;;;;5116863;28;21225;-67
2021/08/26 05:42:51;;;;;;;14.27;6.67;;;14.00;99.90;;;;;;5116681;28;20631;-67
2021/08/26 05:45:17;;;;;;;8.20;6.40;;;14.00;99.90;;;;;;5116846;28;21138;-66
2021/08/26 05:47:43;;;;;;;12.93;7.97;;;13.90;99.90;;;;;;5117086;28;20635;-67
2021/08/26 05:50:12;;;;;;;13.10;7.00;;;14.00;99.90;;;;;;5116742;28;20600;-67
2021/08/26 05:52:38;;;;;;;8.43;7.47;;;14.00;99.90;;;;;;5116590;28;20596;-67
2021/08/26 05:55:05;;;;;;;7.90;6.60;;;14.10;99.90;;;;;;5116550;28;20610;-67
2021/08/26 05:57:31;;;;;;;7.37;6.77;;;14.10;99.90;;;;;;5116818;28;20592;-67
2021/08/26 05:59:59;;;;;;;8.87;7.90;;;14.20;99.90;;;;;;5113188;28;20695;-67
2021/08/26 06:02:25;;;;;;;11.03;8.03;;;14.40;99.90;;;;;;5116262;28;20615;-67
2021/08/26 06:04:52;;;;;;;7.87;6.80;;;14.50;99.90;;;;;;5115857;28;21165;-66
2021/08/26 06:07:18;;;;;;;12.30;7.57;;;14.50;99.90;;;;;;5115949;28;20603;-67
2021/08/26 06:09:44;;;;;;;7.03;6.33;;;14.50;99.90;;;;;;5115653;28;20627;-66
2021/08/26 06:12:11;;;;;;;8.97;7.13;;;14.50;99.90;;;;;;5115967;28;20623;-66
2021/08/26 06:14:37;;;;;;;8.97;7.93;;;14.50;99.90;;;;;;5115695;28;20683;-66
2021/08/26 06:17:06;;;;;;;9.80;6.83;;;14.50;99.90;;;;;;5116015;28;20665;-66
2021/08/26 06:19:33;;;;;;;8.37;6.97;;;14.50;99.90;;;;;;5116805;28;20599;-66
2021/08/26 06:21:59;;;;;;;9.93;7.20;;;14.60;99.90;;;;;;5116678;28;21487;-66
2021/08/26 06:24:25;;;;;;;8.20;6.83;;;14.60;99.90;;;;;;5115693;28;20591;-67
2021/08/26 06:26:52;;;;;;;10.33;7.63;;;14.50;99.90;;;;;;5115863;28;20636;-67
2021/08/26 06:29:19;;;;;;;11.00;7.30;;;14.50;99.90;;;;;;5115886;28;20622;-66
2021/08/26 06:31:47;;;;;;;9.77;7.70;;;14.60;99.90;;;;;;5115628;28;20631;-67
2021/08/26 06:34:14;;;;;;;8.13;7.33;;;14.60;99.90;;;;;;5115588;28;21004;-67
2021/08/26 06:36:41;;;;;;;9.83;7.57;;;14.60;99.90;;;;;;5115456;28;20609;-67
2021/08/26 06:39:07;;;;;;;8.30;7.13;;;14.80;99.90;;;;;;5115145;28;20631;-67
2021/08/26 06:41:33;;;;;;;8.50;6.53;;;14.80;99.90;;;;;;5115625;28;20642;-67
2021/08/26 06:44:00;;;;;;;11.23;7.40;;;14.90;99.90;;;;;;5097064;28;20624;-67
2021/08/26 06:46:26;;;;;;;12.63;8.03;;;15.00;99.90;;;;;;5116223;28;20893;-67
2021/08/26 06:48:54;;;;;;;8.73;6.60;;;14.90;99.90;;;;;;5115396;28;20621;-67
2021/08/26 06:51:22;;;;;;;9.13;8.33;;;15.00;99.90;;;;;;5098119;28;21178;-67
2021/08/26 06:53:49;;;;;;;12.07;7.93;;;15.00;99.90;;;;;;5115948;28;20632;-65
2021/08/26 06:56:15;;;;;;;9.83;7.87;;;15.00;99.90;;;;;;5115905;28;20658;-65
2021/08/26 06:58:42;;;;;;;9.17;8.30;;;15.00;99.90;;;;;;5115370;28;20620;-65
2021/08/26 07:01:11;;;;;;;14.33;8.37;;;15.10;99.90;;;;;;5115513;28;20615;-66
2021/08/26 07:03:40;;;;;;;17.17;9.50;;;15.00;99.90;;;;;;5115569;28;20634;-66
2021/08/26 07:06:07;;;;;;;16.53;9.07;;;15.10;99.90;;;;;;5115358;28;20595;-66
2021/08/26 07:08:33;;;;;;;8.70;7.60;;;15.00;99.90;;;;;;5108115;28;20628;-66
2021/08/26 07:10:59;;;;;;;12.73;9.70;;;14.90;99.90;;;;;;5093977;28;20647;-66
2021/08/26 07:13:26;;;;;;;12.00;8.90;;;14.90;99.90;;;;;;5113725;28;20660;-67
2021/08/26 07:15:52;;;;;;;15.57;9.33;;;14.80;99.90;;;;;;5113509;28;21150;-66
2021/08/26 07:18:19;;;;;;;14.20;10.87;;;14.90;99.90;;;;;;5100041;28;20583;-66
2021/08/26 07:20:46;;;;;;;20.30;10.40;;;15.00;99.90;;;;;;5114190;28;20604;-66
2021/08/26 07:23:12;;;;;;;13.07;10.80;;;14.70;99.90;;;;;;5114545;28;20612;-66
2021/08/26 07:25:38;;;;;;;15.97;12.17;;;14.50;99.90;;;;;;5103806;28;21123;-66
2021/08/26 07:28:06;;;;;;;15.67;11.40;;;14.60;99.90;;;;;;5111328;28;20670;-66
2021/08/26 07:30:35;;;;;;;13.37;11.97;;;14.50;99.90;;;;;;5116166;28;20632;-66
2021/08/26 07:33:01;;;;;;;13.23;12.03;;;14.50;99.90;;;;;;5097326;28;20617;-66
2021/08/26 07:35:28;;;;;;;14.00;12.60;;;14.60;99.90;;;;;;5115947;28;20644;-66
2021/08/26 07:37:54;;;;;;;12.80;11.40;;;14.70;99.90;;;;;;5113976;28;20631;-66
2021/08/26 07:40:20;;;;;;;15.70;11.67;;;14.70;99.90;;;;;;5113199;28;21172;-66
2021/08/26 07:42:47;;;;;;;13.07;11.63;;;14.80;99.90;;;;;;5102869;28;20649;-66
2021/08/26 07:45:13;;;;;;;14.63;12.60;;;14.70;99.90;;;;;;5110950;28;20620;-66
2021/08/26 07:47:39;;;;;;;16.60;12.60;;;14.70;99.90;;;;;;5114434;28;20713;-66
2021/08/26 07:50:07;;;;;;;13.80;12.40;;;14.70;99.90;;;;;;5113537;28;20602;-66
2021/08/26 07:52:33;;;;;;;13.77;12.40;;;14.60;99.90;;;;;;5114102;28;20619;-66
2021/08/26 07:55:02;;;;;;;14.03;12.57;;;14.60;99.90;;;;;;5113752;28;20634;-66
2021/08/26 07:57:29;;;;;;;13.20;12.00;;;14.60;99.90;;;;;;5114080;28;20615;-66
2021/08/26 07:59:56;;;;;;;14.33;12.50;;;14.50;99.90;;;;;;5114422;28;20607;-68
2021/08/26 08:02:25;;;;;;;15.40;12.80;;;14.50;99.90;;;;;;5113595;28;21184;-66
2021/08/26 08:04:51;;;;;;;17.30;15.50;;;14.40;99.90;;;;;;5096466;28;20627;-66
2021/08/26 08:07:18;;;;;;;18.00;13.57;;;14.50;99.90;;;;;;5115553;28;20653;-67
2021/08/26 08:09:44;;;;;;;17.03;15.20;;;14.50;99.90;;;;;;5117449;28;20654;-65
2021/08/26 08:12:12;;;;;;;19.53;16.33;;;14.40;99.90;;;;;;5115737;28;21162;-66
2021/08/26 08:14:39;;;;;;;17.33;15.50;;;14.50;99.90;;;;;;5113539;28;20634;-66
2021/08/26 08:17:06;;;;;;;17.23;15.43;;;14.50;99.90;;;;;;5101714;28;20625;-67
2021/08/26 08:19:32;;;;;;;18.00;15.20;;;14.10;99.90;;;;;;5112313;28;20608;-66
2021/08/26 08:21:59;;;;;;;18.80;16.77;;;14.20;99.90;;;;;;5113996;28;20605;-66
2021/08/26 08:24:26;;;;;;;18.87;17.07;;;14.30;99.90;;;;;;5099202;28;20620;-66
2021/08/26 08:26:53;;;;;;;17.40;14.97;;;14.30;99.90;;;;;;5113628;28;20612;-67
2021/08/26 08:29:20;;;;;;;21.23;18.60;;;14.20;99.90;;;;;;5113028;28;20613;-67
2021/08/26 08:31:46;;;;;;;22.33;17.03;;;14.20;99.90;;;;;;5100984;28;20969;-66
2021/08/26 08:34:13;;;;;;;21.63;17.67;;;14.20;99.90;;;;;;5114530;28;21012;-67
2021/08/26 08:36:39;;;;;;;22.70;18.50;;;14.20;99.90;;;;;;5113183;28;20674;-66
2021/08/26 08:39:06;;;;;;;22.37;18.23;;;14.20;99.90;;;;;;5116541;28;20958;-67
2021/08/26 08:41:33;;;;;;;25.67;19.53;;;14.10;99.90;;;;;;5117016;28;20618;-67
2021/08/26 08:44:01;;;;;;;19.80;17.80;;;14.00;99.90;;;;;;5100786;27;21139;-67
2021/08/26 08:46:28;;;;;;;21.33;19.03;;;14.10;99.90;;;;;;5113933;28;20620;-67
2021/08/26 08:48:56;;;;;;;19.87;17.87;;;14.10;99.90;;;;;;5117283;28;21201;-67
2021/08/26 08:51:23;;;;;;;21.63;18.73;;;14.10;99.90;;;;;;5116662;28;20968;-67
2021/08/26 08:53:50;;;;;;;22.63;19.30;;;14.20;99.90;;;;;;5117053;28;21020;-66
2021/08/26 08:56:17;;;;;;;19.60;17.30;;;14.20;99.90;;;;;;5116836;28;21177;-66
2021/08/26 08:58:43;;;;;;;19.80;17.67;;;14.20;99.90;;;;;;5116504;28;20714;-67
2021/08/26 09:01:14;;;;;;;21.00;17.33;;;14.30;99.90;;;;;;5117271;28;20594;-67
2021/08/26 09:03:40;;;;;;;17.50;15.83;;;14.50;99.90;;;;;;5116722;28;20646;-67
2021/08/26 09:06:10;;;;;;;16.57;14.87;;;14.50;99.90;;;;;;5117644;28;21170;-67
2021/08/26 09:08:37;;;;;;;19.90;16.53;;;14.60;99.90;;;;;;5117266;28;20670;-67
2021/08/26 09:11:18;;;;;;;27.77;15.20;;;14.60;99.90;;;;;;5117240;28;20591;-67
2021/08/26 09:13:46;;;;;;;49.47;17.13;;;14.70;99.90;;;;;;5117887;28;21041;-67
2021/08/26 09:16:13;;;;;;;32.97;15.23;;;14.80;99.90;;;;;;5099380;28;20687;-67
2021/08/26 09:18:40;;;;;;;13.63;12.20;;;15.00;99.90;;;;;;5117749;28;20593;-67
2021/08/26 09:21:10;;;;;;;13.80;12.40;;;15.00;99.90;;;;;;5116970;28;20616;-67
2021/08/26 09:23:53;;;;;;;13.30;12.07;;;14.90;99.90;;;;;;5116842;28;20970;-67
2021/08/26 09:26:25;;;;;;;14.17;11.17;;;15.10;99.90;;;;;;5117379;28;20619;-68
2021/08/26 09:28:53;;;;;;;14.33;12.73;;;15.10;99.90;;;;;;5117985;28;20611;-67
2021/08/26 09:31:25;;;;;;;15.70;12.80;;;15.20;99.90;;;;;;5117703;28;20623;-65
2021/08/26 09:33:58;;;;;;;18.47;12.40;;;15.30;99.90;;;;;;5117020;28;20679;-66
2021/08/26 09:36:32;;;;;;;14.70;12.17;;;15.30;99.90;;;;;;5117773;28;20581;-66
2021/08/26 09:39:02;;;;;;;14.70;12.30;;;15.30;99.90;;;;;;5117545;28;20639;-67
2021/08/26 09:41:40;;;;;;;12.53;11.23;;;15.20;99.90;;;;;;5116659;28;20644;-67
2021/08/26 09:44:31;;;;;;;12.37;11.20;;;15.30;99.90;;;;;;5117665;28;20602;-66
2021/08/26 09:47:03;;;;;;;14.53;10.80;;;15.30;99.90;;;;;;5099609;28;20631;-68
2021/08/26 09:49:34;;;;;;;13.77;12.47;;;15.50;99.90;;;;;;5082664;28;20731;-66
2021/08/26 09:52:12;;;;;;;12.93;10.40;;;15.60;99.90;;;;;;5117804;28;20568;-67
2021/08/26 09:54:46;;;;;;;11.70;10.50;;;15.70;99.90;;;;;;5118088;28;20751;-66
2021/08/26 09:57:25;;;;;;;8.97;8.10;;;16.00;99.90;;;;;;5118874;28;20712;-67
2021/08/26 09:59:54;;;;;;;10.77;9.00;;;16.10;99.90;;;;;;5118423;28;20592;-66
2021/08/26 10:02:21;;;;;;;8.73;7.83;;;16.20;99.90;;;;;;5118703;28;20596;-66
2021/08/26 10:04:49;;;;;;;8.43;7.70;;;16.30;99.90;;;;;;5119247;28;20600;-67
2021/08/26 10:07:17;;;;;;;7.90;7.20;;;16.40;99.90;;;;;;5118397;28;20628;-65
2021/08/26 10:09:45;;;;;;;6.97;6.27;;;16.50;99.90;;;;;;5123554;28;20681;-66
2021/08/26 10:12:13;;;;;;;6.23;5.73;;;16.70;99.90;;;;;;5122432;28;21053;-67
2021/08/26 10:14:41;;;;;;;7.00;6.30;;;17.00;99.90;;;;;;5120179;28;20660;-67
2021/08/26 10:17:09;;;;;;;6.13;5.00;;;17.00;99.90;;;;;;5117573;28;20619;-67
2021/08/26 10:19:36;;;;;;;5.73;5.23;;;17.10;99.90;;;;;;5116830;28;21143;-67
2021/08/26 10:22:03;;;;;;;5.43;5.00;;;17.10;99.90;;;;;;5118212;28;20618;-66
2021/08/26 10:24:30;;;;;;;5.43;4.87;;;17.30;99.90;;;;;;5117632;28;20723;-67
2021/08/26 10:27:05;;;;;;;5.87;5.27;;;17.50;99.90;;;;;;5117642;28;20628;-66
2021/08/26 10:29:34;;;;;;;5.27;4.50;;;17.10;99.90;;;;;;5118873;28;20722;-66
2021/08/26 10:32:03;;;;;;;5.93;4.87;;;17.10;99.90;;;;;;5117182;28;20634;-67
2021/08/26 10:34:32;;;;;;;6.83;5.33;;;17.30;99.90;;;;;;5116517;28;20663;-66
2021/08/26 10:36:58;;;;;;;6.97;5.20;;;17.60;99.90;;;;;;5100226;28;20617;-66
2021/08/26 10:39:32;;;;;;;5.70;5.10;;;17.70;99.90;;;;;;5117611;28;21233;-66
2021/08/26 10:42:28;;;;;;;4.93;4.53;;;17.80;99.90;;;;;;5116447;28;20650;-65
2021/08/26 10:45:10;;;;;;;5.20;4.80;;;18.00;99.90;;;;;;5115237;28;20635;-66
2021/08/26 10:47:49;;;;;;;9.27;4.77;;;18.40;99.90;;;;;;5115118;28;20652;-65
2021/08/26 10:50:29;;;;;;;5.20;4.60;;;18.50;99.90;;;;;;5116158;28;20646;-65
2021/08/26 10:52:59;;;;;;;4.43;4.00;;;18.30;99.90;;;;;;5115174;28;20657;-66
2021/08/26 10:55:28;;;;;;;4.33;4.03;;;18.60;99.90;;;;;;5115880;28;21200;-66
2021/08/26 10:58:22;;;;;;;4.67;4.27;;;18.00;99.90;;;;;;5115988;28;20618;-67
2021/08/26 11:00:54;;;;;;;4.93;4.43;;;18.00;99.90;;;;;;5115167;28;20622;-67
2021/08/26 11:03:36;;;;;;;4.40;4.00;;;18.30;99.90;;;;;;5115484;28;20621;-66
2021/08/26 11:06:17;;;;;;;5.13;4.60;;;18.60;99.90;;;;;;5114775;28;20642;-66
2021/08/26 11:08:52;;;;;;;5.20;4.70;;;19.10;99.90;;;;;;5115970;28;20612;-66
2021/08/26 11:11:27;;;;;;;5.87;3.63;;;19.10;99.90;;;;;;5116312;28;20671;-67
2021/08/26 11:14:03;;;;;;;3.90;3.60;;;19.50;99.90;;;;;;5115925;28;20635;-65
2021/08/26 11:16:38;;;;;;;8.33;3.57;;;19.80;99.90;;;;;;5114808;28;20619;-65
2021/08/26 11:19:05;;;;;;;3.60;3.37;;;20.30;99.90;;;;;;5114444;28;20981;-66
2021/08/26 11:24:12;;;;;;;4.10;3.70;;;21.10;99.90;;;;;;5117670;28;20704;-67
2021/08/26 11:26:45;;;;;;;4.40;4.10;;;21.20;99.90;;;;;;5115645;28;20711;-67
2021/08/26 11:29:17;;;;;;;4.80;4.20;;;20.10;99.90;;;;;;5096492;28;20790;-68
2021/08/26 11:31:56;;;;;;;5.37;4.10;;;20.00;99.90;;;;;;5114241;28;20617;-67
2021/08/26 11:34:33;;;;;;;7.70;4.30;;;20.40;99.90;;;;;;5114149;28;20675;-66
2021/08/26 11:37:12;;;;;;;7.70;4.60;;;21.00;99.90;;;;;;5114168;28;20668;-67
2021/08/26 11:39:43;;;;;;;3.90;3.50;;;21.10;99.90;;;;;;5114390;28;20561;-66
2021/08/26 11:42:25;;;;;;;3.70;3.40;;;20.70;99.90;;;;;;5095349;28;20644;-66
2021/08/26 11:45:09;;;;;;;3.90;3.60;;;20.10;99.90;;;;;;5114665;28;20581;-66
2021/08/26 11:47:38;;;;;;;4.00;3.60;;;20.00;99.90;;;;;;5113750;28;20648;-67
2021/08/26 11:50:23;;;;;;;10.57;3.53;;;21.10;99.90;;;;;;5114192;28;20592;-67
2021/08/26 11:52:52;;;;;;;5.33;4.90;;;21.70;39.80;;;;;;5114140;28;20615;-67
2021/08/26 11:55:22;;;;;;;7.17;3.47;;;21.50;1.00;;;;;;5113679;28;20656;-66
2021/08/26 11:57:58;;;;;;;5.03;3.80;;;20.60;37.30;;;;;;5114139;28;20565;-66
2021/08/26 12:00:27;;;;;;;3.57;3.27;;;20.10;99.90;;;;;;5114258;28;20675;-66
2021/08/26 12:02:57;;;;;;;7.43;3.30;;;20.00;99.90;;;;;;5114099;28;20588;-66
2021/08/26 12:05:25;;;;;;;3.50;3.30;;;19.70;99.90;;;;;;5114253;28;20579;-66
2021/08/26 12:07:53;;;;;;;4.80;3.50;;;19.80;99.90;;;;;;5114191;28;20608;-66
2021/08/26 12:10:32;;;;;;;4.13;3.83;;;19.80;99.90;;;;;;5096393;28;20623;-66
2021/08/26 12:13:03;;;;;;;4.70;4.23;;;19.70;99.90;;;;;;5113210;28;20609;-67
2021/08/26 12:15:34;;;;;;;3.80;3.50;;;19.40;99.90;;;;;;5114468;28;20703;-66
2021/08/26 12:18:06;;;;;;;5.47;4.27;;;19.30;99.90;;;;;;5113758;28;20673;-67
2021/08/26 12:20:52;;;;;;;4.40;4.10;;;19.60;99.90;;;;;;5113166;28;20632;-66
2021/08/26 12:23:29;;;;;;;4.03;3.73;;;19.80;96.40;;;;;;5115313;28;20640;-66
2021/08/26 12:26:21;;;;;;;3.53;3.23;;;20.60;24.90;;;;;;5114740;28;20587;-67
2021/08/26 12:28:55;;;;;;;5.23;3.73;;;21.50;16.30;;;;;;5113627;28;20993;-67
2021/08/26 12:31:22;;;;;;;3.60;3.20;;;21.50;1.00;;;;;;5113279;28;20634;-66
2021/08/26 12:34:09;;;;;;;4.07;3.50;;;22.10;1.00;;;;;;5096454;28;20707;-67
2021/08/26 12:36:38;;;;;;;4.30;3.50;;;22.70;1.50;;;;;;5115830;28;20612;-67
2021/08/26 12:39:17;;;;;;;5.17;3.27;;;23.90;52.00;;;;;;5117160;28;20628;-67
2021/08/26 12:41:43;;;;;;;3.63;3.33;;;25.60;99.90;;;;;;5117752;28;20724;-66
2021/08/26 12:44:26;;;;;;;4.07;3.63;;;24.70;99.90;;;;;;5116535;28;20599;-67
2021/08/26 12:46:54;;;;;;;6.07;3.20;;;26.30;99.90;;;;;;5115498;28;20651;-66
2021/08/26 12:49:20;;;;;;;4.57;4.17;;;26.00;99.90;;;;;;5115953;28;21173;-66
2021/08/26 12:51:52;;;;;;;3.63;3.33;;;27.50;99.90;;;;;;5114610;28;20612;-66
2021/08/26 12:54:21;;;;;;;3.13;2.90;;;27.50;99.90;;;;;;5116575;28;21243;-67